sensor_id;sensor_type;location;lat;lon;timestamp;temperature;humidity
22716;DHT22;11525;51.152;4.456;2024-01-15T00:02:13;3.90;99.90
22716;DHT22;11525;51.152;4.456;2024-01-15T00:04:39;3.80;99.90
22716;DHT22;11525;51.152;4.456;2024-01-15T00:07:08;3.70;99.90
22716;DHT22;11525;51.152;4.456;2024-01-15T00:09:34;3.70;99.90
22716;DHT22;11525;51.152;4.456;2024-01-15T00:12:00;3.70;99.90
22716;DHT22;11525;51.152;4.456;2024-01-15T00:14:27;3.70;99.90
22716;DHT22;11525;51.152;4.456;2024-01-15T00:16:53;3.70;99.90
22716;DHT22;11525;51.152;4.456;2024-01-15T00:19:21;3.80;99.90
22716;DHT22;11525;51.152;4.456;2024-01-15T00:21:47;3.80;99.90
22716;DHT22;11525;51.152;4.456;2024-01-15T00:24:12;3.90;99.90
22716;DHT22;11525;51.152;4.456;2024-01-15T00:26:38;3.90;99.90
22716;DHT22;11525;51.152;4.456;2024-01-15T00:29:04;3.90;99.90
22716;DHT22;11525;51.152;4.456;2024-01-15T00:31:29;3.90;99.90
22716;DHT22;11525;51.152;4.456;2024-01-15T00:33:56;4.00;99.90
22716;DHT22;11525;51.152;4.456;2024-01-15T00:36:22;4.10;99.90
22716;DHT22;11525;51.152;4.456;2024-01-15T00:38:48;4.10;99.90
22716;DHT22;11525;51.152;4.456;2024-01-15T00:41:14;4.10;99.90
22716;DHT22;11525;51.152;4.456;2024-01-15T00:43:40;4.10;99.90
22716;DHT22;11525;51.152;4.456;2024-01-15T00:46:06;4.20;99.90
22716;DHT22;11525;51.152;4.456;2024-01-15T00:48:32;4.10;99.90
22716;DHT22;11525;51.152;4.456;2024-01-15T00:50:58;4.10;99.90
22716;DHT22;11525;51.152;4.456;2024-01-15T00:53:25;4.20;99.90
22716;DHT22;11525;51.152;4.456;2024-01-15T00:55:50;4.20;99.90
22716;DHT22;11525;51.152;4.456;2024-01-15T00:58:16;4.20;99.90
22716;DHT22;11525;51.152;4.456;2024-01-15T01:00:42;4.10;99.90
22716;DHT22;11525;51.152;4.456;2024-01-15T01:03:08;4.20;99.90
22716;DHT22;11525;51.152;4.456;2024-01-15T01:05:34;4.20;99.90
22716;DHT22;11525;51.152;4.456;2024-01-15T01:08:00;4.00;99.90
22716;DHT22;11525;51.152;4.456;2024-01-15T01:10:27;4.00;99.90
22716;DHT22;11525;51.152;4.456;2024-01-15T01:12:52;3.90;99.90
22716;DHT22;11525;51.152;4.456;2024-01-15T01:15:18;3.80;99.90
22716;DHT22;11525;51.152;4.456;2024-01-15T01:17:43;3.80;99.90
22716;DHT22;11525;51.152;4.456;2024-01-15T01:20:09;3.80;99.90
22716;DHT22;11525;51.152;4.456;2024-01-15T01:22:36;3.80;99.90
22716;DHT22;11525;51.152;4.456;2024-01-15T01:25:02;3.80;99.90
22716;DHT22;11525;51.152;4.456;2024-01-15T01:27:28;3.70;99.90
22716;DHT22;11525;51.152;4.456;2024-01-15T01:29:54;3.70;99.90
22716;DHT22;11525;51.152;4.456;2024-01-15T01:32:20;3.70;99.90
22716;DHT22;11525;51.152;4.456;2024-01-15T01:34:45;3.70;99.90
22716;DHT22;11525;51.152;4.456;2024-01-15T01:37:11;3.60;99.90
22716;DHT22;11525;51.152;4.456;2024-01-15T01:39:41;3.60;99.90
22716;DHT22;11525;51.152;4.456;2024-01-15T01:42:07;3.60;99.90
22716;DHT22;11525;51.152;4.456;2024-01-15T01:44:32;3.50;99.90
22716;DHT22;11525;51.152;4.456;2024-01-15T01:46:59;3.60;99.90
22716;DHT22;11525;51.152;4.456;2024-01-15T01:49:26;3.40;99.90
22716;DHT22;11525;51.152;4.456;2024-01-15T01:51:53;3.40;99.90
22716;DHT22;11525;51.152;4.456;2024-01-15T01:54:19;3.40;99.90
22716;DHT22;11525;51.152;4.456;2024-01-15T01:56:47;3.30;99.90
22716;DHT22;11525;51.152;4.456;2024-01-15T01:59:13;3.30;99.90
22716;DHT22;11525;51.152;4.456;2024-01-15T02:01:40;3.20;99.90
22716;DHT22;11525;51.152;4.456;2024-01-15T02:04:06;3.20;99.90
22716;DHT22;11525;51.152;4.456;2024-01-15T02:06:32;3.20;99.90
22716;DHT22;11525;51.152;4.456;2024-01-15T02:08:58;3.20;99.90
22716;DHT22;11525;51.152;4.456;2024-01-15T02:11:24;3.20;99.90
22716;DHT22;11525;51.152;4.456;2024-01-15T02:13:50;3.20;99.90
22716;DHT22;11525;51.152;4.456;2024-01-15T02:16:15;3.20;99.90
22716;DHT22;11525;51.152;4.456;2024-01-15T02:18:42;3.10;99.90
22716;DHT22;11525;51.152;4.456;2024-01-15T02:21:09;3.10;99.90
22716;DHT22;11525;51.152;4.456;2024-01-15T02:23:35;3.10;99.90
22716;DHT22;11525;51.152;4.456;2024-01-15T02:26:01;3.10;99.90
22716;DHT22;11525;51.152;4.456;2024-01-15T02:28:26;3.10;99.90
22716;DHT22;11525;51.152;4.456;2024-01-15T02:30:52;3.20;99.90
22716;DHT22;11525;51.152;4.456;2024-01-15T02:33:18;3.30;99.90
22716;DHT22;11525;51.152;4.456;2024-01-15T02:35:43;3.30;99.90
22716;DHT22;11525;51.152;4.456;2024-01-15T02:38:09;3.30;99.90
22716;DHT22;11525;51.152;4.456;2024-01-15T02:40:35;3.40;99.90
22716;DHT22;11525;51.152;4.456;2024-01-15T02:43:01;3.40;99.90
22716;DHT22;11525;51.152;4.456;2024-01-15T02:45:27;3.40;99.90
22716;DHT22;11525;51.152;4.456;2024-01-15T02:47:52;3.50;99.90
22716;DHT22;11525;51.152;4.456;2024-01-15T02:50:18;3.40;99.90
22716;DHT22;11525;51.152;4.456;2024-01-15T02:52:44;3.50;99.90
22716;DHT22;11525;51.152;4.456;2024-01-15T02:55:10;3.70;99.90
22716;DHT22;11525;51.152;4.456;2024-01-15T02:57:35;3.70;99.90
22716;DHT22;11525;51.152;4.456;2024-01-15T03:00:01;3.70;99.90
22716;DHT22;11525;51.152;4.456;2024-01-15T03:02:27;3.70;99.90
22716;DHT22;11525;51.152;4.456;2024-01-15T03:04:53;3.70;99.90
22716;DHT22;11525;51.152;4.456;2024-01-15T03:07:19;3.70;99.90
22716;DHT22;11525;51.152;4.456;2024-01-15T03:09:44;3.70;99.90
22716;DHT22;11525;51.152;4.456;2024-01-15T03:12:10;3.70;99.90
22716;DHT22;11525;51.152;4.456;2024-01-15T03:14:36;3.70;99.90
22716;DHT22;11525;51.152;4.456;2024-01-15T03:17:02;3.80;99.90
22716;DHT22;11525;51.152;4.456;2024-01-15T03:19:28;3.90;99.90
22716;DHT22;11525;51.152;4.456;2024-01-15T03:21:53;3.90;99.90
22716;DHT22;11525;51.152;4.456;2024-01-15T03:24:20;3.90;99.90
22716;DHT22;11525;51.152;4.456;2024-01-15T03:26:46;3.90;99.90
22716;DHT22;11525;51.152;4.456;2024-01-15T03:29:11;3.80;99.90
22716;DHT22;11525;51.152;4.456;2024-01-15T03:31:37;4.00;99.90
22716;DHT22;11525;51.152;4.456;2024-01-15T03:34:03;3.90;99.90
22716;DHT22;11525;51.152;4.456;2024-01-15T03:36:29;3.80;99.90
22716;DHT22;11525;51.152;4.456;2024-01-15T03:38:54;3.80;99.90
22716;DHT22;11525;51.152;4.456;2024-01-15T03:41:20;3.80;99.90
22716;DHT22;11525;51.152;4.456;2024-01-15T03:43:46;3.80;99.90
22716;DHT22;11525;51.152;4.456;2024-01-15T03:46:11;3.70;99.90
22716;DHT22;11525;51.152;4.456;2024-01-15T03:48:38;3.70;99.90
22716;DHT22;11525;51.152;4.456;2024-01-15T03:51:04;3.60;99.90
22716;DHT22;11525;51.152;4.456;2024-01-15T03:53:29;3.70;99.90
22716;DHT22;11525;51.152;4.456;2024-01-15T03:55:55;3.60;99.90
22716;DHT22;11525;51.152;4.456;2024-01-15T03:58:21;3.50;99.90
22716;DHT22;11525;51.152;4.456;2024-01-15T04:00:47;3.50;99.90
22716;DHT22;11525;51.152;4.456;2024-01-15T04:03:12;3.60;99.90
22716;DHT22;11525;51.152;4.456;2024-01-15T04:05:38;3.60;99.90
22716;DHT22;11525;51.152;4.456;2024-01-15T04:08:04;3.60;99.90
22716;DHT22;11525;51.152;4.456;2024-01-15T04:10:30;3.50;99.90
22716;DHT22;11525;51.152;4.456;2024-01-15T04:12:56;3.50;99.90
22716;DHT22;11525;51.152;4.456;2024-01-15T04:15:22;3.50;99.90
22716;DHT22;11525;51.152;4.456;2024-01-15T04:17:47;3.50;99.90
22716;DHT22;11525;51.152;4.456;2024-01-15T04:20:13;3.40;99.90
22716;DHT22;11525;51.152;4.456;2024-01-15T04:22:39;3.40;99.90
22716;DHT22;11525;51.152;4.456;2024-01-15T04:25:05;3.30;99.90
22716;DHT22;11525;51.152;4.456;2024-01-15T04:27:31;3.40;99.90
22716;DHT22;11525;51.152;4.456;2024-01-15T04:29:56;3.50;99.90
22716;DHT22;11525;51.152;4.456;2024-01-15T04:32:22;3.40;99.90
22716;DHT22;11525;51.152;4.456;2024-01-15T04:34:48;3.40;99.90
22716;DHT22;11525;51.152;4.456;2024-01-15T04:37:14;3.30;99.90
22716;DHT22;11525;51.152;4.456;2024-01-15T04:39:39;3.30;99.90
22716;DHT22;11525;51.152;4.456;2024-01-15T04:42:05;3.30;99.90
22716;DHT22;11525;51.152;4.456;2024-01-15T04:44:31;3.20;99.90
22716;DHT22;11525;51.152;4.456;2024-01-15T04:46:56;3.10;99.90
22716;DHT22;11525;51.152;4.456;2024-01-15T04:49:22;3.10;99.90
22716;DHT22;11525;51.152;4.456;2024-01-15T04:51:48;3.20;99.90
22716;DHT22;11525;51.152;4.456;2024-01-15T04:54:13;3.20;99.90
22716;DHT22;11525;51.152;4.456;2024-01-15T04:56:43;3.10;99.90
22716;DHT22;11525;51.152;4.456;2024-01-15T04:59:09;3.20;99.90
22716;DHT22;11525;51.152;4.456;2024-01-15T05:01:35;3.20;99.90
22716;DHT22;11525;51.152;4.456;2024-01-15T05:04:01;3.20;99.90
22716;DHT22;11525;51.152;4.456;2024-01-15T05:06:26;3.30;99.90
22716;DHT22;11525;51.152;4.456;2024-01-15T05:08:52;3.30;99.90
22716;DHT22;11525;51.152;4.456;2024-01-15T05:11:19;3.30;99.90
22716;DHT22;11525;51.152;4.456;2024-01-15T05:13:44;3.30;99.90
22716;DHT22;11525;51.152;4.456;2024-01-15T05:16:10;3.40;99.90
22716;DHT22;11525;51.152;4.456;2024-01-15T05:18:36;3.40;99.90
22716;DHT22;11525;51.152;4.456;2024-01-15T05:21:03;3.40;99.90
22716;DHT22;11525;51.152;4.456;2024-01-15T05:23:29;3.30;99.90
22716;DHT22;11525;51.152;4.456;2024-01-15T05:25:54;3.30;99.90
22716;DHT22;11525;51.152;4.456;2024-01-15T05:28:20;3.30;99.90
22716;DHT22;11525;51.152;4.456;2024-01-15T05:30:45;3.30;99.90
22716;DHT22;11525;51.152;4.456;2024-01-15T05:33:12;3.40;99.90
22716;DHT22;11525;51.152;4.456;2024-01-15T05:35:37;3.50;99.90
22716;DHT22;11525;51.152;4.456;2024-01-15T05:38:03;3.50;99.90
22716;DHT22;11525;51.152;4.456;2024-01-15T05:40:29;3.30;99.90
22716;DHT22;11525;51.152;4.456;2024-01-15T05:42:54;3.30;99.90
22716;DHT22;11525;51.152;4.456;2024-01-15T05:45:20;3.40;99.90
22716;DHT22;11525;51.152;4.456;2024-01-15T05:47:45;3.30;99.90
22716;DHT22;11525;51.152;4.456;2024-01-15T05:50:11;3.40;99.90
22716;DHT22;11525;51.152;4.456;2024-01-15T05:52:37;3.30;99.90
22716;DHT22;11525;51.152;4.456;2024-01-15T05:55:02;3.20;99.90
22716;DHT22;11525;51.152;4.456;2024-01-15T05:57:28;3.20;99.90
22716;DHT22;11525;51.152;4.456;2024-01-15T05:59:54;3.30;99.90
22716;DHT22;11525;51.152;4.456;2024-01-15T06:02:20;3.20;99.90
22716;DHT22;11525;51.152;4.456;2024-01-15T06:04:45;3.30;99.90
22716;DHT22;11525;51.152;4.456;2024-01-15T06:07:11;3.30;99.90
22716;DHT22;11525;51.152;4.456;2024-01-15T06:09:37;3.50;99.90
22716;DHT22;11525;51.152;4.456;2024-01-15T06:12:04;3.50;99.90
22716;DHT22;11525;51.152;4.456;2024-01-15T06:14:30;3.60;99.90
22716;DHT22;11525;51.152;4.456;2024-01-15T06:16:55;3.70;99.90
22716;DHT22;11525;51.152;4.456;2024-01-15T06:19:21;3.50;99.90
22716;DHT22;11525;51.152;4.456;2024-01-15T06:21:47;3.40;99.90
22716;DHT22;11525;51.152;4.456;2024-01-15T06:24:12;3.40;99.90
22716;DHT22;11525;51.152;4.456;2024-01-15T06:26:39;3.30;99.90
22716;DHT22;11525;51.152;4.456;2024-01-15T06:29:04;3.20;99.90
22716;DHT22;11525;51.152;4.456;2024-01-15T06:31:30;3.20;99.90
22716;DHT22;11525;51.152;4.456;2024-01-15T06:33:56;3.20;99.90
22716;DHT22;11525;51.152;4.456;2024-01-15T06:36:21;3.10;99.90
22716;DHT22;11525;51.152;4.456;2024-01-15T06:38:47;3.10;99.90
22716;DHT22;11525;51.152;4.456;2024-01-15T06:41:13;3.20;99.90
22716;DHT22;11525;51.152;4.456;2024-01-15T06:43:38;3.20;99.90
22716;DHT22;11525;51.152;4.456;2024-01-15T06:46:07;3.10;99.90
22716;DHT22;11525;51.152;4.456;2024-01-15T06:48:32;3.00;99.90
22716;DHT22;11525;51.152;4.456;2024-01-15T06:50:58;3.00;99.90
22716;DHT22;11525;51.152;4.456;2024-01-15T06:53:24;2.90;99.90
22716;DHT22;11525;51.152;4.456;2024-01-15T06:55:50;3.00;99.90
22716;DHT22;11525;51.152;4.456;2024-01-15T06:58:16;3.20;99.90
22716;DHT22;11525;51.152;4.456;2024-01-15T07:00:42;3.40;99.90
22716;DHT22;11525;51.152;4.456;2024-01-15T07:03:08;3.40;99.90
22716;DHT22;11525;51.152;4.456;2024-01-15T07:05:36;3.30;99.90
22716;DHT22;11525;51.152;4.456;2024-01-15T07:08:03;3.30;99.90
22716;DHT22;11525;51.152;4.456;2024-01-15T07:10:29;3.30;99.90
22716;DHT22;11525;51.152;4.456;2024-01-15T07:12:54;3.30;99.90
22716;DHT22;11525;51.152;4.456;2024-01-15T07:15:20;3.40;99.90
22716;DHT22;11525;51.152;4.456;2024-01-15T07:17:46;3.30;99.90
22716;DHT22;11525;51.152;4.456;2024-01-15T07:20:11;3.60;99.90
22716;DHT22;11525;51.152;4.456;2024-01-15T07:22:37;3.70;99.90
22716;DHT22;11525;51.152;4.456;2024-01-15T07:25:03;3.80;99.90
22716;DHT22;11525;51.152;4.456;2024-01-15T07:27:30;3.70;99.90
22716;DHT22;11525;51.152;4.456;2024-01-15T07:29:57;3.70;99.90
22716;DHT22;11525;51.152;4.456;2024-01-15T07:32:22;3.60;99.90
22716;DHT22;11525;51.152;4.456;2024-01-15T07:34:48;3.60;99.90
22716;DHT22;11525;51.152;4.456;2024-01-15T07:37:14;3.60;99.90
22716;DHT22;11525;51.152;4.456;2024-01-15T07:39:40;3.60;99.90
22716;DHT22;11525;51.152;4.456;2024-01-15T07:42:06;3.70;99.90
22716;DHT22;11525;51.152;4.456;2024-01-15T07:44:32;3.60;99.90
22716;DHT22;11525;51.152;4.456;2024-01-15T07:46:58;3.60;99.90
22716;DHT22;11525;51.152;4.456;2024-01-15T07:49:24;4.10;99.90
22716;DHT22;11525;51.152;4.456;2024-01-15T07:51:49;4.20;99.90
22716;DHT22;11525;51.152;4.456;2024-01-15T07:54:15;4.10;99.90
22716;DHT22;11525;51.152;4.456;2024-01-15T07:57:00;4.00;99.90
22716;DHT22;11525;51.152;4.456;2024-01-15T07:59:28;3.90;99.90
22716;DHT22;11525;51.152;4.456;2024-01-15T08:01:53;3.90;99.90
22716;DHT22;11525;51.152;4.456;2024-01-15T08:04:20;3.90;99.90
22716;DHT22;11525;51.152;4.456;2024-01-15T08:06:47;3.90;99.90
22716;DHT22;11525;51.152;4.456;2024-01-15T08:09:13;3.80;99.90
22716;DHT22;11525;51.152;4.456;2024-01-15T08:11:42;3.90;99.90
22716;DHT22;11525;51.152;4.456;2024-01-15T08:14:09;3.80;99.90
22716;DHT22;11525;51.152;4.456;2024-01-15T08:16:35;3.90;99.90
22716;DHT22;11525;51.152;4.456;2024-01-15T08:19:01;3.90;99.90
22716;DHT22;11525;51.152;4.456;2024-01-15T08:21:27;4.00;99.90
22716;DHT22;11525;51.152;4.456;2024-01-15T08:24:00;4.10;99.90
22716;DHT22;11525;51.152;4.456;2024-01-15T08:26:26;4.00;99.90
22716;DHT22;11525;51.152;4.456;2024-01-15T08:28:51;4.00;99.90
22716;DHT22;11525;51.152;4.456;2024-01-15T08:31:17;3.90;99.90
22716;DHT22;11525;51.152;4.456;2024-01-15T08:33:43;3.90;99.90
22716;DHT22;11525;51.152;4.456;2024-01-15T08:36:12;3.90;99.90
22716;DHT22;11525;51.152;4.456;2024-01-15T08:38:37;3.80;99.90
22716;DHT22;11525;51.152;4.456;2024-01-15T08:41:03;3.80;99.90
22716;DHT22;11525;51.152;4.456;2024-01-15T08:43:29;3.90;99.90
22716;DHT22;11525;51.152;4.456;2024-01-15T08:45:56;4.00;99.90
22716;DHT22;11525;51.152;4.456;2024-01-15T08:48:22;3.90;99.90
22716;DHT22;11525;51.152;4.456;2024-01-15T08:50:48;3.90;99.90
22716;DHT22;11525;51.152;4.456;2024-01-15T08:53:14;3.70;99.90
22716;DHT22;11525;51.152;4.456;2024-01-15T08:55:40;3.80;99.90
22716;DHT22;11525;51.152;4.456;2024-01-15T08:58:08;3.70;99.90
22716;DHT22;11525;51.152;4.456;2024-01-15T09:00:34;3.80;99.90
22716;DHT22;11525;51.152;4.456;2024-01-15T09:03:00;4.00;99.90
22716;DHT22;11525;51.152;4.456;2024-01-15T09:05:26;4.10;99.90
22716;DHT22;11525;51.152;4.456;2024-01-15T09:07:51;4.00;99.90
22716;DHT22;11525;51.152;4.456;2024-01-15T09:10:18;4.10;99.90
22716;DHT22;11525;51.152;4.456;2024-01-15T09:12:44;4.20;99.90
22716;DHT22;11525;51.152;4.456;2024-01-15T09:15:10;4.10;99.90
22716;DHT22;11525;51.152;4.456;2024-01-15T09:17:36;4.10;99.90
22716;DHT22;11525;51.152;4.456;2024-01-15T09:20:02;4.10;99.90
22716;DHT22;11525;51.152;4.456;2024-01-15T09:22:30;4.20;99.90
22716;DHT22;11525;51.152;4.456;2024-01-15T09:24:55;4.80;99.90
22716;DHT22;11525;51.152;4.456;2024-01-15T09:27:21;6.30;99.90
22716;DHT22;11525;51.152;4.456;2024-01-15T09:29:46;8.00;99.90
22716;DHT22;11525;51.152;4.456;2024-01-15T09:32:12;9.70;99.90
22716;DHT22;11525;51.152;4.456;2024-01-15T09:34:38;10.10;99.90
22716;DHT22;11525;51.152;4.456;2024-01-15T09:37:04;11.10;99.90
22716;DHT22;11525;51.152;4.456;2024-01-15T09:39:30;11.40;99.90
22716;DHT22;11525;51.152;4.456;2024-01-15T09:41:57;11.50;99.90
22716;DHT22;11525;51.152;4.456;2024-01-15T09:44:23;11.90;99.90
22716;DHT22;11525;51.152;4.456;2024-01-15T09:46:49;11.30;99.90
22716;DHT22;11525;51.152;4.456;2024-01-15T09:49:18;11.30;99.90
22716;DHT22;11525;51.152;4.456;2024-01-15T09:51:45;10.90;99.90
22716;DHT22;11525;51.152;4.456;2024-01-15T09:54:10;9.80;99.90
22716;DHT22;11525;51.152;4.456;2024-01-15T09:56:39;9.90;99.90
22716;DHT22;11525;51.152;4.456;2024-01-15T09:59:05;10.50;99.90
22716;DHT22;11525;51.152;4.456;2024-01-15T10:01:32;10.60;99.90
22716;DHT22;11525;51.152;4.456;2024-01-15T10:03:58;11.00;99.90
22716;DHT22;11525;51.152;4.456;2024-01-15T10:06:26;12.30;99.90
22716;DHT22;11525;51.152;4.456;2024-01-15T10:08:54;12.50;99.90
22716;DHT22;11525;51.152;4.456;2024-01-15T10:11:19;12.40;99.90
22716;DHT22;11525;51.152;4.456;2024-01-15T10:13:46;12.40;99.90
22716;DHT22;11525;51.152;4.456;2024-01-15T10:16:12;13.00;99.90
22716;DHT22;11525;51.152;4.456;2024-01-15T10:18:38;13.20;99.90
22716;DHT22;11525;51.152;4.456;2024-01-15T10:21:06;13.90;98.70
22716;DHT22;11525;51.152;4.456;2024-01-15T10:23:33;14.20;97.10
22716;DHT22;11525;51.152;4.456;2024-01-15T10:26:00;13.80;97.30
22716;DHT22;11525;51.152;4.456;2024-01-15T10:28:29;14.30;96.70
22716;DHT22;11525;51.152;4.456;2024-01-15T10:30:57;13.80;96.00
22716;DHT22;11525;51.152;4.456;2024-01-15T10:33:23;14.00;95.60
22716;DHT22;11525;51.152;4.456;2024-01-15T10:35:56;12.30;97.50
22716;DHT22;11525;51.152;4.456;2024-01-15T10:38:23;10.20;99.90
22716;DHT22;11525;51.152;4.456;2024-01-15T10:40:53;9.10;99.90
22716;DHT22;11525;51.152;4.456;2024-01-15T10:43:19;8.30;99.90
22716;DHT22;11525;51.152;4.456;2024-01-15T10:45:45;8.00;99.90
22716;DHT22;11525;51.152;4.456;2024-01-15T10:48:11;7.90;99.90
22716;DHT22;11525;51.152;4.456;2024-01-15T10:50:37;7.50;99.90
22716;DHT22;11525;51.152;4.456;2024-01-15T10:53:04;6.80;99.90
22716;DHT22;11525;51.152;4.456;2024-01-15T10:55:31;6.80;99.90
22716;DHT22;11525;51.152;4.456;2024-01-15T10:57:58;6.40;99.90
22716;DHT22;11525;51.152;4.456;2024-01-15T11:00:24;6.30;99.90
22716;DHT22;11525;51.152;4.456;2024-01-15T11:02:51;6.20;99.90
22716;DHT22;11525;51.152;4.456;2024-01-15T11:05:18;6.10;99.90
22716;DHT22;11525;51.152;4.456;2024-01-15T11:07:48;5.80;99.90
22716;DHT22;11525;51.152;4.456;2024-01-15T11:16:03;5.60;99.90
22716;DHT22;11525;51.152;4.456;2024-01-15T11:23:46;6.30;99.90
22716;DHT22;11525;51.152;4.456;2024-01-15T11:28:58;5.70;99.90
22716;DHT22;11525;51.152;4.456;2024-01-15T11:33:54;6.20;99.90
22716;DHT22;11525;51.152;4.456;2024-01-15T11:36:21;6.50;99.90
22716;DHT22;11525;51.152;4.456;2024-01-15T11:38:47;6.50;99.90
22716;DHT22;11525;51.152;4.456;2024-01-15T11:41:15;6.40;99.90
22716;DHT22;11525;51.152;4.456;2024-01-15T11:43:41;6.00;99.90
22716;DHT22;11525;51.152;4.456;2024-01-15T11:46:11;5.60;99.90
22716;DHT22;11525;51.152;4.456;2024-01-15T11:48:44;5.60;99.90
22716;DHT22;11525;51.152;4.456;2024-01-15T11:51:13;5.40;99.90
22716;DHT22;11525;51.152;4.456;2024-01-15T11:53:48;5.00;99.90
22716;DHT22;11525;51.152;4.456;2024-01-15T11:56:18;4.40;99.90
22716;DHT22;11525;51.152;4.456;2024-01-15T11:58:47;3.80;99.90
22716;DHT22;11525;51.152;4.456;2024-01-15T12:01:13;3.70;99.90
22716;DHT22;11525;51.152;4.456;2024-01-15T12:03:39;3.70;99.90
22716;DHT22;11525;51.152;4.456;2024-01-15T12:06:09;3.70;99.90
22716;DHT22;11525;51.152;4.456;2024-01-15T12:08:35;3.90;99.90
22716;DHT22;11525;51.152;4.456;2024-01-15T12:11:06;4.10;99.90
22716;DHT22;11525;51.152;4.456;2024-01-15T12:13:32;4.00;99.90
22716;DHT22;11525;51.152;4.456;2024-01-15T12:16:01;4.10;99.90
22716;DHT22;11525;51.152;4.456;2024-01-15T12:18:27;4.10;99.90
22716;DHT22;11525;51.152;4.456;2024-01-15T12:20:54;4.20;99.90
22716;DHT22;11525;51.152;4.456;2024-01-15T12:23:20;4.40;99.90
22716;DHT22;11525;51.152;4.456;2024-01-15T12:25:45;4.40;99.90
22716;DHT22;11525;51.152;4.456;2024-01-15T12:28:12;4.10;99.90
22716;DHT22;11525;51.152;4.456;2024-01-15T12:30:38;3.80;99.90
22716;DHT22;11525;51.152;4.456;2024-01-15T12:33:05;3.60;99.90
22716;DHT22;11525;51.152;4.456;2024-01-15T12:35:31;3.50;99.90
22716;DHT22;11525;51.152;4.456;2024-01-15T12:37:57;3.30;99.90
22716;DHT22;11525;51.152;4.456;2024-01-15T12:40:23;3.20;99.90
22716;DHT22;11525;51.152;4.456;2024-01-15T12:42:49;3.10;99.90
22716;DHT22;11525;51.152;4.456;2024-01-15T12:45:15;3.10;99.90
22716;DHT22;11525;51.152;4.456;2024-01-15T12:47:42;2.90;99.90
22716;DHT22;11525;51.152;4.456;2024-01-15T12:50:12;2.80;99.90
22716;DHT22;11525;51.152;4.456;2024-01-15T12:52:40;3.00;99.90
22716;DHT22;11525;51.152;4.456;2024-01-15T12:55:07;3.00;99.90
22716;DHT22;11525;51.152;4.456;2024-01-15T12:57:34;3.10;99.90
22716;DHT22;11525;51.152;4.456;2024-01-15T13:00:00;3.00;99.90
22716;DHT22;11525;51.152;4.456;2024-01-15T13:02:26;2.60;99.90
22716;DHT22;11525;51.152;4.456;2024-01-15T13:04:51;2.60;99.90
22716;DHT22;11525;51.152;4.456;2024-01-15T13:07:17;2.50;99.90
22716;DHT22;11525;51.152;4.456;2024-01-15T13:09:43;2.50;99.90
22716;DHT22;11525;51.152;4.456;2024-01-15T13:12:09;2.60;99.90
22716;DHT22;11525;51.152;4.456;2024-01-15T13:14:34;2.80;99.90
22716;DHT22;11525;51.152;4.456;2024-01-15T13:17:00;3.00;99.90
22716;DHT22;11525;51.152;4.456;2024-01-15T13:19:26;3.00;99.90
22716;DHT22;11525;51.152;4.456;2024-01-15T13:21:53;3.00;99.90
22716;DHT22;11525;51.152;4.456;2024-01-15T13:24:19;2.70;99.90
22716;DHT22;11525;51.152;4.456;2024-01-15T13:26:45;2.60;99.90
22716;DHT22;11525;51.152;4.456;2024-01-15T13:29:10;2.50;99.90
22716;DHT22;11525;51.152;4.456;2024-01-15T13:31:36;2.60;99.90
22716;DHT22;11525;51.152;4.456;2024-01-15T13:34:03;2.50;99.90
22716;DHT22;11525;51.152;4.456;2024-01-15T13:36:29;2.60;99.90
22716;DHT22;11525;51.152;4.456;2024-01-15T13:38:55;2.60;99.90
22716;DHT22;11525;51.152;4.456;2024-01-15T13:41:21;2.70;99.90
22716;DHT22;11525;51.152;4.456;2024-01-15T13:43:50;2.60;99.90
22716;DHT22;11525;51.152;4.456;2024-01-15T13:46:22;2.70;99.90
22716;DHT22;11525;51.152;4.456;2024-01-15T13:48:48;2.80;99.90
22716;DHT22;11525;51.152;4.456;2024-01-15T13:51:14;3.00;99.90
22716;DHT22;11525;51.152;4.456;2024-01-15T13:53:40;3.10;99.90
22716;DHT22;11525;51.152;4.456;2024-01-15T13:56:06;3.20;99.90
22716;DHT22;11525;51.152;4.456;2024-01-15T13:58:33;3.00;99.90
22716;DHT22;11525;51.152;4.456;2024-01-15T14:00:59;3.10;99.90
22716;DHT22;11525;51.152;4.456;2024-01-15T14:03:25;3.00;99.90
22716;DHT22;11525;51.152;4.456;2024-01-15T14:05:52;3.00;99.90
22716;DHT22;11525;51.152;4.456;2024-01-15T14:08:18;2.90;99.90
22716;DHT22;11525;51.152;4.456;2024-01-15T14:10:43;2.90;99.90
22716;DHT22;11525;51.152;4.456;2024-01-15T14:13:09;2.90;99.90
22716;DHT22;11525;51.152;4.456;2024-01-15T14:15:35;2.90;99.90
22716;DHT22;11525;51.152;4.456;2024-01-15T14:18:01;2.90;99.90
22716;DHT22;11525;51.152;4.456;2024-01-15T14:20:27;3.00;99.90
22716;DHT22;11525;51.152;4.456;2024-01-15T14:22:53;3.30;99.90
22716;DHT22;11525;51.152;4.456;2024-01-15T14:25:22;3.40;99.90
22716;DHT22;11525;51.152;4.456;2024-01-15T14:27:49;3.30;99.90
22716;DHT22;11525;51.152;4.456;2024-01-15T14:30:16;3.20;99.90
22716;DHT22;11525;51.152;4.456;2024-01-15T14:32:42;3.10;99.90
22716;DHT22;11525;51.152;4.456;2024-01-15T14:35:08;3.20;99.90
22716;DHT22;11525;51.152;4.456;2024-01-15T14:37:37;3.30;99.90
22716;DHT22;11525;51.152;4.456;2024-01-15T14:40:04;3.60;99.90
22716;DHT22;11525;51.152;4.456;2024-01-15T14:42:30;3.90;99.90
22716;DHT22;11525;51.152;4.456;2024-01-15T14:44:56;4.00;99.90
22716;DHT22;11525;51.152;4.456;2024-01-15T14:47:22;4.10;99.90
22716;DHT22;11525;51.152;4.456;2024-01-15T14:49:49;4.40;99.90
22716;DHT22;11525;51.152;4.456;2024-01-15T14:52:16;4.60;99.90
22716;DHT22;11525;51.152;4.456;2024-01-15T14:54:41;4.60;99.90
22716;DHT22;11525;51.152;4.456;2024-01-15T14:57:07;4.60;99.90
22716;DHT22;11525;51.152;4.456;2024-01-15T14:59:33;4.40;99.90
22716;DHT22;11525;51.152;4.456;2024-01-15T15:01:58;4.30;99.90
22716;DHT22;11525;51.152;4.456;2024-01-15T15:04:24;4.30;99.90
22716;DHT22;11525;51.152;4.456;2024-01-15T15:06:50;4.30;99.90
22716;DHT22;11525;51.152;4.456;2024-01-15T15:09:15;4.20;99.90
22716;DHT22;11525;51.152;4.456;2024-01-15T15:11:41;4.30;99.90
22716;DHT22;11525;51.152;4.456;2024-01-15T15:14:07;4.30;99.90
22716;DHT22;11525;51.152;4.456;2024-01-15T15:16:32;4.40;99.90
22716;DHT22;11525;51.152;4.456;2024-01-15T15:18:58;4.50;99.90
22716;DHT22;11525;51.152;4.456;2024-01-15T15:21:24;4.50;99.90
22716;DHT22;11525;51.152;4.456;2024-01-15T15:23:50;4.70;99.90
22716;DHT22;11525;51.152;4.456;2024-01-15T15:26:15;4.60;99.90
22716;DHT22;11525;51.152;4.456;2024-01-15T15:28:41;4.30;99.90
22716;DHT22;11525;51.152;4.456;2024-01-15T15:31:07;4.20;99.90
22716;DHT22;11525;51.152;4.456;2024-01-15T15:33:34;4.20;99.90
22716;DHT22;11525;51.152;4.456;2024-01-15T15:35:59;4.20;99.90
22716;DHT22;11525;51.152;4.456;2024-01-15T15:38:33;4.20;99.90
22716;DHT22;11525;51.152;4.456;2024-01-15T15:41:00;4.40;99.90
22716;DHT22;11525;51.152;4.456;2024-01-15T15:43:26;4.20;99.90
22716;DHT22;11525;51.152;4.456;2024-01-15T15:45:52;4.10;99.90
22716;DHT22;11525;51.152;4.456;2024-01-15T15:48:18;3.90;99.90
22716;DHT22;11525;51.152;4.456;2024-01-15T15:50:43;3.90;99.90
22716;DHT22;11525;51.152;4.456;2024-01-15T15:53:09;4.00;99.90
22716;DHT22;11525;51.152;4.456;2024-01-15T15:55:35;4.00;99.90